sensor_id;sensor_type;location;lat;lon;timestamp;P1;durP1;ratioP1;P2;durP2;ratioP2
19651;SDS011;9974;52.146;14.668;2023-03-24T00:00:06;3.05;;;1.27;;
19651;SDS011;9974;52.146;14.668;2023-03-24T00:02:37;4.32;;;1.58;;
19651;SDS011;9974;52.146;14.668;2023-03-24T00:05:06;2.70;;;1.40;;
19651;SDS011;9974;52.146;14.668;2023-03-24T00:07:37;2.10;;;1.00;;
19651;SDS011;9974;52.146;14.668;2023-03-24T00:10:04;3.05;;;1.55;;
19651;SDS011;9974;52.146;14.668;2023-03-24T00:12:33;3.25;;;1.52;;
19651;SDS011;9974;52.146;14.668;2023-03-24T00:15:02;2.25;;;1.42;;
19651;SDS011;9974;52.146;14.668;2023-03-24T00:17:33;3.08;;;1.50;;
19651;SDS011;9974;52.146;14.668;2023-03-24T00:20:08;2.88;;;1.95;;
19651;SDS011;9974;52.146;14.668;2023-03-24T00:22:41;2.13;;;1.58;;
19651;SDS011;9974;52.146;14.668;2023-03-24T00:25:21;3.88;;;1.50;;
19651;SDS011;9974;52.146;14.668;2023-03-24T00:27:48;3.28;;;1.80;;
19651;SDS011;9974;52.146;14.668;2023-03-24T00:30:15;4.93;;;1.83;;
19651;SDS011;9974;52.146;14.668;2023-03-24T00:32:42;3.58;;;1.45;;
19651;SDS011;9974;52.146;14.668;2023-03-24T00:35:09;3.92;;;1.38;;
19651;SDS011;9974;52.146;14.668;2023-03-24T00:37:37;2.45;;;1.55;;
19651;SDS011;9974;52.146;14.668;2023-03-24T00:40:05;2.95;;;1.95;;
19651;SDS011;9974;52.146;14.668;2023-03-24T00:42:35;2.67;;;1.33;;
19651;SDS011;9974;52.146;14.668;2023-03-24T00:45:01;3.67;;;1.63;;
19651;SDS011;9974;52.146;14.668;2023-03-24T00:47:29;4.45;;;1.77;;
19651;SDS011;9974;52.146;14.668;2023-03-24T00:50:00;3.17;;;2.17;;
19651;SDS011;9974;52.146;14.668;2023-03-24T00:52:28;2.60;;;1.48;;
19651;SDS011;9974;52.146;14.668;2023-03-24T00:54:58;2.42;;;1.83;;
19651;SDS011;9974;52.146;14.668;2023-03-24T00:57:26;3.17;;;2.25;;
19651;SDS011;9974;52.146;14.668;2023-03-24T00:59:54;4.43;;;2.10;;
19651;SDS011;9974;52.146;14.668;2023-03-24T01:02:21;3.78;;;1.90;;
19651;SDS011;9974;52.146;14.668;2023-03-24T01:04:55;2.88;;;1.70;;
19651;SDS011;9974;52.146;14.668;2023-03-24T01:07:23;3.05;;;1.90;;
19651;SDS011;9974;52.146;14.668;2023-03-24T01:09:49;2.95;;;2.03;;
19651;SDS011;9974;52.146;14.668;2023-03-24T01:12:28;6.65;;;1.88;;
19651;SDS011;9974;52.146;14.668;2023-03-24T01:15:01;5.03;;;1.83;;
19651;SDS011;9974;52.146;14.668;2023-03-24T01:17:38;4.40;;;2.20;;
19651;SDS011;9974;52.146;14.668;2023-03-24T01:20:04;3.15;;;1.83;;
19651;SDS011;9974;52.146;14.668;2023-03-24T01:22:32;3.97;;;2.00;;
19651;SDS011;9974;52.146;14.668;2023-03-24T01:25:02;2.95;;;2.05;;
19651;SDS011;9974;52.146;14.668;2023-03-24T01:27:29;4.05;;;2.25;;
19651;SDS011;9974;52.146;14.668;2023-03-24T01:29:59;3.72;;;1.77;;
19651;SDS011;9974;52.146;14.668;2023-03-24T01:32:25;5.35;;;2.13;;
19651;SDS011;9974;52.146;14.668;2023-03-24T01:34:53;4.85;;;1.98;;
19651;SDS011;9974;52.146;14.668;2023-03-24T01:37:18;3.38;;;1.95;;
19651;SDS011;9974;52.146;14.668;2023-03-24T01:39:44;4.07;;;2.05;;
19651;SDS011;9974;52.146;14.668;2023-03-24T01:42:15;5.80;;;2.38;;
19651;SDS011;9974;52.146;14.668;2023-03-24T01:44:47;4.43;;;2.40;;
19651;SDS011;9974;52.146;14.668;2023-03-24T01:47:14;6.75;;;3.00;;
19651;SDS011;9974;52.146;14.668;2023-03-24T01:49:49;5.15;;;2.17;;
19651;SDS011;9974;52.146;14.668;2023-03-24T01:52:21;3.72;;;2.10;;
19651;SDS011;9974;52.146;14.668;2023-03-24T01:54:53;4.18;;;2.30;;
19651;SDS011;9974;52.146;14.668;2023-03-24T01:57:32;5.53;;;2.38;;
19651;SDS011;9974;52.146;14.668;2023-03-24T02:00:05;5.25;;;2.47;;
19651;SDS011;9974;52.146;14.668;2023-03-24T02:02:34;2.83;;;1.85;;
19651;SDS011;9974;52.146;14.668;2023-03-24T02:05:02;3.67;;;2.05;;
19651;SDS011;9974;52.146;14.668;2023-03-24T02:07:34;3.78;;;2.15;;
19651;SDS011;9974;52.146;14.668;2023-03-24T02:10:08;6.35;;;1.88;;
19651;SDS011;9974;52.146;14.668;2023-03-24T02:12:38;6.38;;;2.10;;
19651;SDS011;9974;52.146;14.668;2023-03-24T02:15:05;4.13;;;2.00;;
19651;SDS011;9974;52.146;14.668;2023-03-24T02:23:13;5.85;;;1.88;;
19651;SDS011;9974;52.146;14.668;2023-03-24T02:26:03;4.28;;;2.20;;
19651;SDS011;9974;52.146;14.668;2023-03-24T02:37:38;3.50;;;2.20;;
19651;SDS011;9974;52.146;14.668;2023-03-24T02:40:33;3.25;;;1.77;;
19651;SDS011;9974;52.146;14.668;2023-03-24T02:46:18;3.05;;;1.83;;
19651;SDS011;9974;52.146;14.668;2023-03-24T02:49:24;3.30;;;1.90;;
19651;SDS011;9974;52.146;14.668;2023-03-24T02:52:31;2.88;;;1.77;;
19651;SDS011;9974;52.146;14.668;2023-03-24T02:57:42;3.75;;;1.83;;
19651;SDS011;9974;52.146;14.668;2023-03-24T03:00:26;4.75;;;2.00;;
19651;SDS011;9974;52.146;14.668;2023-03-24T03:03:00;3.33;;;1.85;;
19651;SDS011;9974;52.146;14.668;2023-03-24T03:05:34;4.38;;;2.17;;
19651;SDS011;9974;52.146;14.668;2023-03-24T03:08:04;6.70;;;2.42;;
19651;SDS011;9974;52.146;14.668;2023-03-24T03:10:41;5.55;;;2.33;;
19651;SDS011;9974;52.146;14.668;2023-03-24T03:13:14;6.85;;;2.08;;
19651;SDS011;9974;52.146;14.668;2023-03-24T03:15:51;5.13;;;2.20;;
19651;SDS011;9974;52.146;14.668;2023-03-24T03:18:24;2.78;;;1.67;;
19651;SDS011;9974;52.146;14.668;2023-03-24T03:20:56;7.78;;;2.08;;
19651;SDS011;9974;52.146;14.668;2023-03-24T03:23:32;4.30;;;2.00;;
19651;SDS011;9974;52.146;14.668;2023-03-24T03:26:00;5.85;;;2.22;;
19651;SDS011;9974;52.146;14.668;2023-03-24T03:28:28;5.15;;;1.92;;
19651;SDS011;9974;52.146;14.668;2023-03-24T03:30:58;3.22;;;2.17;;
19651;SDS011;9974;52.146;14.668;2023-03-24T03:33:31;6.65;;;2.00;;
19651;SDS011;9974;52.146;14.668;2023-03-24T03:36:05;2.75;;;1.88;;
19651;SDS011;9974;52.146;14.668;2023-03-24T03:41:37;4.45;;;2.40;;
19651;SDS011;9974;52.146;14.668;2023-03-24T03:44:04;4.07;;;2.10;;
19651;SDS011;9974;52.146;14.668;2023-03-24T03:46:30;5.85;;;3.25;;
19651;SDS011;9974;52.146;14.668;2023-03-24T03:48:56;4.90;;;2.38;;
19651;SDS011;9974;52.146;14.668;2023-03-24T03:51:22;5.03;;;2.58;;
19651;SDS011;9974;52.146;14.668;2023-03-24T03:53:53;4.03;;;2.30;;
19651;SDS011;9974;52.146;14.668;2023-03-24T03:56:24;7.03;;;2.60;;
19651;SDS011;9974;52.146;14.668;2023-03-24T03:58:52;4.80;;;2.63;;
19651;SDS011;9974;52.146;14.668;2023-03-24T04:01:19;4.03;;;2.20;;
19651;SDS011;9974;52.146;14.668;2023-03-24T04:04:01;6.72;;;2.30;;
19651;SDS011;9974;52.146;14.668;2023-03-24T04:07:07;14.70;;;3.05;;
19651;SDS011;9974;52.146;14.668;2023-03-24T04:10:01;5.07;;;2.63;;
19651;SDS011;9974;52.146;14.668;2023-03-24T04:15:28;4.60;;;2.90;;
19651;SDS011;9974;52.146;14.668;2023-03-24T04:18:31;4.88;;;2.70;;
19651;SDS011;9974;52.146;14.668;2023-03-24T04:23:42;4.50;;;2.55;;
19651;SDS011;9974;52.146;14.668;2023-03-24T04:26:18;6.47;;;2.65;;
19651;SDS011;9974;52.146;14.668;2023-03-24T04:29:02;5.10;;;2.72;;
19651;SDS011;9974;52.146;14.668;2023-03-24T04:31:43;4.68;;;2.83;;
19651;SDS011;9974;52.146;14.668;2023-03-24T04:34:18;3.97;;;2.35;;
19651;SDS011;9974;52.146;14.668;2023-03-24T04:39:28;6.88;;;3.28;;
19651;SDS011;9974;52.146;14.668;2023-03-24T04:41:56;5.32;;;2.90;;
19651;SDS011;9974;52.146;14.668;2023-03-24T04:44:25;6.63;;;3.33;;
19651;SDS011;9974;52.146;14.668;2023-03-24T04:46:53;4.82;;;3.17;;
19651;SDS011;9974;52.146;14.668;2023-03-24T04:49:21;3.83;;;2.45;;
19651;SDS011;9974;52.146;14.668;2023-03-24T04:51:51;4.90;;;2.97;;
19651;SDS011;9974;52.146;14.668;2023-03-24T04:54:18;11.20;;;3.25;;
19651;SDS011;9974;52.146;14.668;2023-03-24T04:56:49;8.85;;;3.58;;
19651;SDS011;9974;52.146;14.668;2023-03-24T04:59:19;4.70;;;2.75;;
19651;SDS011;9974;52.146;14.668;2023-03-24T05:01:45;7.70;;;3.25;;
19651;SDS011;9974;52.146;14.668;2023-03-24T05:04:18;6.07;;;3.35;;
19651;SDS011;9974;52.146;14.668;2023-03-24T05:06:45;6.85;;;3.88;;
19651;SDS011;9974;52.146;14.668;2023-03-24T05:09:13;4.20;;;2.90;;
19651;SDS011;9974;52.146;14.668;2023-03-24T05:11:41;6.82;;;3.35;;
19651;SDS011;9974;52.146;14.668;2023-03-24T05:14:08;6.45;;;3.70;;
19651;SDS011;9974;52.146;14.668;2023-03-24T05:16:34;8.35;;;4.05;;
19651;SDS011;9974;52.146;14.668;2023-03-24T05:19:01;10.25;;;5.18;;
19651;SDS011;9974;52.146;14.668;2023-03-24T05:21:27;6.15;;;3.72;;
19651;SDS011;9974;52.146;14.668;2023-03-24T05:23:53;6.95;;;3.90;;
19651;SDS011;9974;52.146;14.668;2023-03-24T05:26:19;6.47;;;3.63;;
19651;SDS011;9974;52.146;14.668;2023-03-24T05:28:45;5.80;;;3.80;;
19651;SDS011;9974;52.146;14.668;2023-03-24T05:31:11;6.03;;;3.63;;
19651;SDS011;9974;52.146;14.668;2023-03-24T05:33:37;5.63;;;3.85;;
19651;SDS011;9974;52.146;14.668;2023-03-24T05:36:04;7.20;;;3.85;;
19651;SDS011;9974;52.146;14.668;2023-03-24T05:38:30;5.55;;;3.97;;
19651;SDS011;9974;52.146;14.668;2023-03-24T05:40:57;5.05;;;3.28;;
19651;SDS011;9974;52.146;14.668;2023-03-24T05:43:24;5.68;;;3.55;;
19651;SDS011;9974;52.146;14.668;2023-03-24T05:45:50;5.03;;;3.50;;
19651;SDS011;9974;52.146;14.668;2023-03-24T05:48:16;4.88;;;3.50;;
19651;SDS011;9974;52.146;14.668;2023-03-24T05:50:42;8.15;;;3.80;;
19651;SDS011;9974;52.146;14.668;2023-03-24T05:53:09;4.05;;;2.72;;
19651;SDS011;9974;52.146;14.668;2023-03-24T05:55:35;6.03;;;3.63;;
19651;SDS011;9974;52.146;14.668;2023-03-24T05:58:01;8.27;;;3.47;;
19651;SDS011;9974;52.146;14.668;2023-03-24T06:00:28;6.43;;;3.28;;
19651;SDS011;9974;52.146;14.668;2023-03-24T06:02:55;5.00;;;3.55;;
19651;SDS011;9974;52.146;14.668;2023-03-24T06:05:22;6.80;;;3.20;;
19651;SDS011;9974;52.146;14.668;2023-03-24T06:07:48;7.00;;;4.15;;
19651;SDS011;9974;52.146;14.668;2023-03-24T06:10:15;4.20;;;2.88;;
19651;SDS011;9974;52.146;14.668;2023-03-24T06:12:42;4.38;;;3.10;;
19651;SDS011;9974;52.146;14.668;2023-03-24T06:15:09;5.03;;;3.10;;
19651;SDS011;9974;52.146;14.668;2023-03-24T06:17:36;8.32;;;2.88;;
19651;SDS011;9974;52.146;14.668;2023-03-24T06:20:03;5.07;;;3.47;;
19651;SDS011;9974;52.146;14.668;2023-03-24T06:22:33;5.70;;;3.60;;
19651;SDS011;9974;52.146;14.668;2023-03-24T06:24:59;6.07;;;3.33;;
19651;SDS011;9974;52.146;14.668;2023-03-24T06:27:26;5.90;;;3.15;;
19651;SDS011;9974;52.146;14.668;2023-03-24T06:29:54;5.57;;;3.08;;
19651;SDS011;9974;52.146;14.668;2023-03-24T06:32:20;5.80;;;3.25;;
19651;SDS011;9974;52.146;14.668;2023-03-24T06:34:46;6.13;;;3.25;;
19651;SDS011;9974;52.146;14.668;2023-03-24T06:37:12;10.40;;;3.22;;
19651;SDS011;9974;52.146;14.668;2023-03-24T06:39:39;6.35;;;2.80;;
19651;SDS011;9974;52.146;14.668;2023-03-24T06:42:05;6.63;;;3.33;;
19651;SDS011;9974;52.146;14.668;2023-03-24T06:44:31;4.60;;;2.72;;
19651;SDS011;9974;52.146;14.668;2023-03-24T06:46:57;5.57;;;3.20;;
19651;SDS011;9974;52.146;14.668;2023-03-24T06:49:23;4.78;;;3.10;;
19651;SDS011;9974;52.146;14.668;2023-03-24T06:51:49;5.07;;;3.10;;
19651;SDS011;9974;52.146;14.668;2023-03-24T06:54:16;5.07;;;3.60;;
19651;SDS011;9974;52.146;14.668;2023-03-24T06:56:42;7.40;;;3.30;;
19651;SDS011;9974;52.146;14.668;2023-03-24T06:59:08;8.75;;;3.05;;
19651;SDS011;9974;52.146;14.668;2023-03-24T07:01:34;6.60;;;3.42;;
19651;SDS011;9974;52.146;14.668;2023-03-24T07:04:01;5.35;;;3.20;;
19651;SDS011;9974;52.146;14.668;2023-03-24T07:06:28;5.28;;;3.10;;
19651;SDS011;9974;52.146;14.668;2023-03-24T07:08:55;6.78;;;3.03;;
19651;SDS011;9974;52.146;14.668;2023-03-24T07:11:21;4.45;;;2.78;;
19651;SDS011;9974;52.146;14.668;2023-03-24T07:13:48;4.35;;;2.75;;
19651;SDS011;9974;52.146;14.668;2023-03-24T07:16:13;5.25;;;3.22;;
19651;SDS011;9974;52.146;14.668;2023-03-24T07:18:40;6.85;;;3.05;;
19651;SDS011;9974;52.146;14.668;2023-03-24T07:21:06;5.68;;;3.10;;
19651;SDS011;9974;52.146;14.668;2023-03-24T07:23:32;5.22;;;2.70;;
19651;SDS011;9974;52.146;14.668;2023-03-24T07:25:59;6.07;;;3.75;;
19651;SDS011;9974;52.146;14.668;2023-03-24T07:28:25;7.70;;;3.35;;
19651;SDS011;9974;52.146;14.668;2023-03-24T07:30:51;4.82;;;2.88;;
19651;SDS011;9974;52.146;14.668;2023-03-24T07:33:17;5.20;;;2.90;;
19651;SDS011;9974;52.146;14.668;2023-03-24T07:35:43;5.35;;;2.42;;
19651;SDS011;9974;52.146;14.668;2023-03-24T07:38:09;7.07;;;3.08;;
19651;SDS011;9974;52.146;14.668;2023-03-24T07:40:35;4.97;;;2.47;;
19651;SDS011;9974;52.146;14.668;2023-03-24T07:43:02;3.38;;;2.40;;
19651;SDS011;9974;52.146;14.668;2023-03-24T07:45:29;7.38;;;3.35;;
19651;SDS011;9974;52.146;14.668;2023-03-24T07:47:55;8.35;;;2.90;;
19651;SDS011;9974;52.146;14.668;2023-03-24T07:50:25;6.18;;;2.55;;
19651;SDS011;9974;52.146;14.668;2023-03-24T07:52:52;7.82;;;4.07;;
19651;SDS011;9974;52.146;14.668;2023-03-24T07:55:18;6.90;;;3.78;;
19651;SDS011;9974;52.146;14.668;2023-03-24T07:57:45;6.47;;;2.90;;
19651;SDS011;9974;52.146;14.668;2023-03-24T08:00:13;5.97;;;3.17;;
19651;SDS011;9974;52.146;14.668;2023-03-24T08:02:42;7.32;;;3.90;;
19651;SDS011;9974;52.146;14.668;2023-03-24T08:05:09;5.68;;;2.90;;
19651;SDS011;9974;52.146;14.668;2023-03-24T08:07:38;4.50;;;3.08;;
19651;SDS011;9974;52.146;14.668;2023-03-24T08:10:07;5.63;;;2.45;;
19651;SDS011;9974;52.146;14.668;2023-03-24T08:12:34;7.47;;;3.15;;
19651;SDS011;9974;52.146;14.668;2023-03-24T08:15:00;5.22;;;2.83;;
19651;SDS011;9974;52.146;14.668;2023-03-24T08:17:27;5.43;;;3.30;;
19651;SDS011;9974;52.146;14.668;2023-03-24T08:19:53;9.50;;;3.42;;
19651;SDS011;9974;52.146;14.668;2023-03-24T08:22:20;5.47;;;2.78;;
19651;SDS011;9974;52.146;14.668;2023-03-24T08:24:46;4.75;;;2.60;;
19651;SDS011;9974;52.146;14.668;2023-03-24T08:27:12;5.85;;;3.45;;
19651;SDS011;9974;52.146;14.668;2023-03-24T08:29:38;5.22;;;2.72;;
19651;SDS011;9974;52.146;14.668;2023-03-24T08:32:04;4.22;;;2.80;;
19651;SDS011;9974;52.146;14.668;2023-03-24T08:34:30;6.75;;;3.88;;
19651;SDS011;9974;52.146;14.668;2023-03-24T08:36:56;4.22;;;2.90;;
19651;SDS011;9974;52.146;14.668;2023-03-24T08:39:22;5.45;;;2.97;;
19651;SDS011;9974;52.146;14.668;2023-03-24T08:41:48;7.68;;;3.05;;
19651;SDS011;9974;52.146;14.668;2023-03-24T08:44:14;9.00;;;3.33;;
19651;SDS011;9974;52.146;14.668;2023-03-24T08:46:40;4.28;;;2.50;;
19651;SDS011;9974;52.146;14.668;2023-03-24T08:49:06;4.68;;;3.05;;
19651;SDS011;9974;52.146;14.668;2023-03-24T08:51:33;6.68;;;2.80;;
19651;SDS011;9974;52.146;14.668;2023-03-24T08:53:59;6.07;;;2.70;;
19651;SDS011;9974;52.146;14.668;2023-03-24T08:56:27;3.80;;;2.22;;
19651;SDS011;9974;52.146;14.668;2023-03-24T08:58:53;5.88;;;2.75;;
19651;SDS011;9974;52.146;14.668;2023-03-24T09:01:21;4.47;;;2.35;;
19651;SDS011;9974;52.146;14.668;2023-03-24T09:03:48;6.78;;;3.30;;
19651;SDS011;9974;52.146;14.668;2023-03-24T09:06:14;5.90;;;2.70;;
19651;SDS011;9974;52.146;14.668;2023-03-24T09:08:41;5.43;;;2.85;;
19651;SDS011;9974;52.146;14.668;2023-03-24T09:11:10;4.07;;;2.58;;
19651;SDS011;9974;52.146;14.668;2023-03-24T09:13:41;4.50;;;2.53;;
19651;SDS011;9974;52.146;14.668;2023-03-24T09:16:08;6.45;;;2.53;;
19651;SDS011;9974;52.146;14.668;2023-03-24T09:18:33;6.82;;;3.15;;
19651;SDS011;9974;52.146;14.668;2023-03-24T09:21:01;8.75;;;3.00;;
19651;SDS011;9974;52.146;14.668;2023-03-24T09:23:27;4.93;;;3.17;;
19651;SDS011;9974;52.146;14.668;2023-03-24T09:25:55;5.30;;;2.97;;
19651;SDS011;9974;52.146;14.668;2023-03-24T09:28:21;5.55;;;3.72;;
19651;SDS011;9974;52.146;14.668;2023-03-24T09:30:47;4.53;;;2.95;;
19651;SDS011;9974;52.146;14.668;2023-03-24T09:33:14;13.13;;;5.10;;
19651;SDS011;9974;52.146;14.668;2023-03-24T09:35:40;8.55;;;3.35;;
19651;SDS011;9974;52.146;14.668;2023-03-24T09:38:06;10.65;;;4.00;;
19651;SDS011;9974;52.146;14.668;2023-03-24T09:40:36;6.43;;;4.25;;
19651;SDS011;9974;52.146;14.668;2023-03-24T09:43:04;6.55;;;3.58;;
19651;SDS011;9974;52.146;14.668;2023-03-24T09:45:37;6.95;;;3.15;;
19651;SDS011;9974;52.146;14.668;2023-03-24T09:48:12;7.38;;;3.28;;
19651;SDS011;9974;52.146;14.668;2023-03-24T09:53:35;5.15;;;3.40;;
19651;SDS011;9974;52.146;14.668;2023-03-24T09:56:17;5.72;;;3.58;;
19651;SDS011;9974;52.146;14.668;2023-03-24T09:58:47;5.03;;;3.05;;
19651;SDS011;9974;52.146;14.668;2023-03-24T10:01:18;5.82;;;3.28;;
19651;SDS011;9974;52.146;14.668;2023-03-24T10:03:48;5.15;;;3.08;;
19651;SDS011;9974;52.146;14.668;2023-03-24T10:06:30;5.43;;;2.83;;
19651;SDS011;9974;52.146;14.668;2023-03-24T10:25:38;4.45;;;2.22;;
19651;SDS011;9974;52.146;14.668;2023-03-24T10:28:18;4.07;;;2.15;;
19651;SDS011;9974;52.146;14.668;2023-03-24T10:30:49;5.13;;;2.05;;
19651;SDS011;9974;52.146;14.668;2023-03-24T10:33:15;3.80;;;1.85;;
19651;SDS011;9974;52.146;14.668;2023-03-24T10:36:01;4.43;;;2.45;;
19651;SDS011;9974;52.146;14.668;2023-03-24T10:38:33;6.40;;;2.17;;
19651;SDS011;9974;52.146;14.668;2023-03-24T10:40:59;3.38;;;1.77;;
19651;SDS011;9974;52.146;14.668;2023-03-24T10:43:26;4.18;;;1.70;;
19651;SDS011;9974;52.146;14.668;2023-03-24T10:45:54;3.28;;;1.75;;
19651;SDS011;9974;52.146;14.668;2023-03-24T10:48:34;1.98;;;1.38;;
19651;SDS011;9974;52.146;14.668;2023-03-24T10:51:03;3.17;;;1.70;;
19651;SDS011;9974;52.146;14.668;2023-03-24T10:53:30;2.72;;;1.55;;
19651;SDS011;9974;52.146;14.668;2023-03-24T10:55:57;2.80;;;1.45;;
19651;SDS011;9974;52.146;14.668;2023-03-24T10:58:40;2.90;;;1.30;;
19651;SDS011;9974;52.146;14.668;2023-03-24T11:01:09;2.55;;;1.45;;
19651;SDS011;9974;52.146;14.668;2023-03-24T11:03:45;2.60;;;1.23;;
19651;SDS011;9974;52.146;14.668;2023-03-24T11:06:15;4.18;;;1.60;;
19651;SDS011;9974;52.146;14.668;2023-03-24T11:08:43;2.35;;;1.55;;
19651;SDS011;9974;52.146;14.668;2023-03-24T11:11:13;2.88;;;1.48;;
19651;SDS011;9974;52.146;14.668;2023-03-24T11:13:53;3.63;;;1.80;;
19651;SDS011;9974;52.146;14.668;2023-03-24T11:16:25;2.45;;;1.20;;
19651;SDS011;9974;52.146;14.668;2023-03-24T11:21:33;2.00;;;1.33;;
19651;SDS011;9974;52.146;14.668;2023-03-24T11:24:10;2.67;;;1.50;;
19651;SDS011;9974;52.146;14.668;2023-03-24T11:26:38;3.45;;;1.30;;
19651;SDS011;9974;52.146;14.668;2023-03-24T11:29:06;2.40;;;1.48;;
19651;SDS011;9974;52.146;14.668;2023-03-24T11:31:37;3.33;;;1.30;;
19651;SDS011;9974;52.146;14.668;2023-03-24T11:34:17;4.63;;;1.80;;
19651;SDS011;9974;52.146;14.668;2023-03-24T11:36:49;2.83;;;1.50;;
19651;SDS011;9974;52.146;14.668;2023-03-24T11:39:19;2.25;;;1.40;;
19651;SDS011;9974;52.146;14.668;2023-03-24T11:41:51;2.40;;;1.60;;
19651;SDS011;9974;52.146;14.668;2023-03-24T11:47:09;2.13;;;1.52;;
19651;SDS011;9974;52.146;14.668;2023-03-24T11:49:39;2.28;;;1.45;;
19651;SDS011;9974;52.146;14.668;2023-03-24T11:52:16;4.75;;;1.60;;
19651;SDS011;9974;52.146;14.668;2023-03-24T11:54:46;4.43;;;1.05;;
19651;SDS011;9974;52.146;14.668;2023-03-24T11:57:12;3.22;;;1.70;;
19651;SDS011;9974;52.146;14.668;2023-03-24T11:59:55;3.45;;;1.15;;
19651;SDS011;9974;52.146;14.668;2023-03-24T12:10:54;1.48;;;1.08;;
19651;SDS011;9974;52.146;14.668;2023-03-24T12:13:43;1.77;;;1.00;;
19651;SDS011;9974;52.146;14.668;2023-03-24T12:19:10;1.75;;;0.93;;
19651;SDS011;9974;52.146;14.668;2023-03-24T12:22:01;3.08;;;1.23;;
19651;SDS011;9974;52.146;14.668;2023-03-24T12:24:55;2.15;;;1.45;;
19651;SDS011;9974;52.146;14.668;2023-03-24T12:27:45;1.88;;;1.00;;
19651;SDS011;9974;52.146;14.668;2023-03-24T12:30:36;3.50;;;1.08;;
19651;SDS011;9974;52.146;14.668;2023-03-24T12:33:25;1.50;;;1.05;;
19651;SDS011;9974;52.146;14.668;2023-03-24T12:41:15;1.40;;;1.10;;
19651;SDS011;9974;52.146;14.668;2023-03-24T12:44:09;1.40;;;1.02;;
19651;SDS011;9974;52.146;14.668;2023-03-24T12:47:22;2.63;;;1.15;;
19651;SDS011;9974;52.146;14.668;2023-03-24T12:50:12;3.25;;;1.20;;
19651;SDS011;9974;52.146;14.668;2023-03-24T12:58:10;2.65;;;1.33;;
19651;SDS011;9974;52.146;14.668;2023-03-24T13:00:59;2.70;;;1.52;;
19651;SDS011;9974;52.146;14.668;2023-03-24T13:03:38;2.35;;;1.00;;
19651;SDS011;9974;52.146;14.668;2023-03-24T13:06:12;2.20;;;1.17;;
19651;SDS011;9974;52.146;14.668;2023-03-24T13:08:51;2.33;;;0.98;;
19651;SDS011;9974;52.146;14.668;2023-03-24T13:11:37;1.92;;;1.00;;
19651;SDS011;9974;52.146;14.668;2023-03-24T13:14:24;1.50;;;0.82;;
19651;SDS011;9974;52.146;14.668;2023-03-24T13:16:55;8.02;;;0.90;;
19651;SDS011;9974;52.146;14.668;2023-03-24T13:19:26;1.70;;;0.85;;
19651;SDS011;9974;52.146;14.668;2023-03-24T13:21:53;2.65;;;0.75;;
19651;SDS011;9974;52.146;14.668;2023-03-24T13:24:21;3.60;;;0.90;;
19651;SDS011;9974;52.146;14.668;2023-03-24T13:27:08;1.67;;;0.93;;
19651;SDS011;9974;52.146;14.668;2023-03-24T13:32:48;1.52;;;0.70;;
19651;SDS011;9974;52.146;14.668;2023-03-24T13:35:39;1.23;;;0.70;;
19651;SDS011;9974;52.146;14.668;2023-03-24T13:38:18;1.17;;;0.70;;
19651;SDS011;9974;52.146;14.668;2023-03-24T13:40:50;2.92;;;0.90;;
19651;SDS011;9974;52.146;14.668;2023-03-24T13:43:23;1.38;;;0.60;;
19651;SDS011;9974;52.146;14.668;2023-03-24T13:46:03;1.38;;;0.80;;
19651;SDS011;9974;52.146;14.668;2023-03-24T13:49:05;0.85;;;0.68;;
19651;SDS011;9974;52.146;14.668;2023-03-24T13:51:25;1.80;;;0.70;;
19651;SDS011;9974;52.146;14.668;2023-03-24T13:53:58;2.40;;;1.00;;
19651;SDS011;9974;52.146;14.668;2023-03-24T13:56:31;2.25;;;0.88;;
19651;SDS011;9974;52.146;14.668;2023-03-24T14:02:08;2.50;;;0.70;;
19651;SDS011;9974;52.146;14.668;2023-03-24T14:04:48;0.82;;;0.60;;
19651;SDS011;9974;52.146;14.668;2023-03-24T14:07:31;1.60;;;0.80;;
19651;SDS011;9974;52.146;14.668;2023-03-24T14:15:29;1.63;;;0.73;;
19651;SDS011;9974;52.146;14.668;2023-03-24T14:23:42;1.95;;;0.98;;
19651;SDS011;9974;52.146;14.668;2023-03-24T14:28:47;2.78;;;1.48;;
19651;SDS011;9974;52.146;14.668;2023-03-24T14:41:57;2.90;;;0.98;;
19651;SDS011;9974;52.146;14.668;2023-03-24T14:47:15;1.92;;;1.10;;
19651;SDS011;9974;52.146;14.668;2023-03-24T14:49:47;2.15;;;0.93;;
19651;SDS011;9974;52.146;14.668;2023-03-24T14:54:53;3.20;;;1.25;;
19651;SDS011;9974;52.146;14.668;2023-03-24T14:57:23;2.17;;;0.90;;
19651;SDS011;9974;52.146;14.668;2023-03-24T14:59:54;3.40;;;1.10;;
19651;SDS011;9974;52.146;14.668;2023-03-24T15:02:45;3.28;;;1.40;;
19651;SDS011;9974;52.146;14.668;2023-03-24T15:10:53;2.88;;;1.10;;
19651;SDS011;9974;52.146;14.668;2023-03-24T15:15:57;1.75;;;0.90;;
19651;SDS011;9974;52.146;14.668;2023-03-24T15:18:24;1.67;;;0.98;;
19651;SDS011;9974;52.146;14.668;2023-03-24T15:20:50;2.45;;;1.10;;
19651;SDS011;9974;52.146;14.668;2023-03-24T15:23:17;1.20;;;1.10;;
19651;SDS011;9974;52.146;14.668;2023-03-24T15:25:46;3.53;;;1.00;;
19651;SDS011;9974;52.146;14.668;2023-03-24T15:28:19;4.15;;;0.90;;
19651;SDS011;9974;52.146;14.668;2023-03-24T15:30:49;4.05;;;1.45;;
19651;SDS011;9974;52.146;14.668;2023-03-24T15:33:16;1.58;;;0.88;;
19651;SDS011;9974;52.146;14.668;2023-03-24T15:35:43;1.80;;;1.00;;
19651;SDS011;9974;52.146;14.668;2023-03-24T15:38:16;2.83;;;0.90;;
19651;SDS011;9974;52.146;14.668;2023-03-24T15:41:04;2.03;;;1.10;;
19651;SDS011;9974;52.146;14.668;2023-03-24T15:43:39;1.90;;;1.00;;
19651;SDS011;9974;52.146;14.668;2023-03-24T15:46:19;4.20;;;1.58;;
19651;SDS011;9974;52.146;14.668;2023-03-24T15:48:50;2.45;;;1.40;;
19651;SDS011;9974;52.146;14.668;2023-03-24T15:51:16;2.17;;;1.17;;
19651;SDS011;9974;52.146;14.668;2023-03-24T15:56:22;2.58;;;1.50;;
19651;SDS011;9974;52.146;14.668;2023-03-24T16:01:25;3.63;;;1.65;;
19651;SDS011;9974;52.146;14.668;2023-03-24T16:03:59;3.05;;;1.65;;
19651;SDS011;9974;52.146;14.668;2023-03-24T16:06:32;3.95;;;2.30;;
19651;SDS011;9974;52.146;14.668;2023-03-24T16:08:59;4.63;;;1.80;;
19651;SDS011;9974;52.146;14.668;2023-03-24T16:11:33;3.53;;;1.65;;
19651;SDS011;9974;52.146;14.668;2023-03-24T16:14:11;3.60;;;1.83;;
19651;SDS011;9974;52.146;14.668;2023-03-24T16:16:43;2.17;;;1.48;;
19651;SDS011;9974;52.146;14.668;2023-03-24T16:19:09;2.33;;;1.20;;
19651;SDS011;9974;52.146;14.668;2023-03-24T16:21:35;2.38;;;1.38;;
19651;SDS011;9974;52.146;14.668;2023-03-24T16:24:01;2.38;;;1.38;;
19651;SDS011;9974;52.146;14.668;2023-03-24T16:26:29;2.83;;;1.55;;
19651;SDS011;9974;52.146;14.668;2023-03-24T16:29:39;3.90;;;1.95;;
19651;SDS011;9974;52.146;14.668;2023-03-24T16:31:49;4.53;;;1.23;;
19651;SDS011;9974;52.146;14.668;2023-03-24T16:34:16;2.78;;;1.33;;
19651;SDS011;9974;52.146;14.668;2023-03-24T16:36:44;2.83;;;1.20;;
19651;SDS011;9974;52.146;14.668;2023-03-24T16:39:15;3.15;;;1.45;;
19651;SDS011;9974;52.146;14.668;2023-03-24T16:41:43;1.75;;;1.00;;
19651;SDS011;9974;52.146;14.668;2023-03-24T16:44:09;1.83;;;1.13;;
19651;SDS011;9974;52.146;14.668;2023-03-24T16:46:36;2.53;;;1.30;;
19651;SDS011;9974;52.146;14.668;2023-03-24T16:49:04;2.08;;;1.20;;
19651;SDS011;9974;52.146;14.668;2023-03-24T16:51:32;2.65;;;1.25;;
19651;SDS011;9974;52.146;14.668;2023-03-24T16:53:58;3.90;;;1.55;;
19651;SDS011;9974;52.146;14.668;2023-03-24T16:56:25;3.78;;;1.30;;
19651;SDS011;9974;52.146;14.668;2023-03-24T16:58:50;3.28;;;1.52;;
19651;SDS011;9974;52.146;14.668;2023-03-24T17:03:58;8.63;;;1.70;;
19651;SDS011;9974;52.146;14.668;2023-03-24T17:06:36;3.17;;;1.52;;
19651;SDS011;9974;52.146;14.668;2023-03-24T17:09:04;2.63;;;1.35;;
19651;SDS011;9974;52.146;14.668;2023-03-24T17:11:33;3.72;;;2.05;;
19651;SDS011;9974;52.146;14.668;2023-03-24T17:14:02;5.05;;;2.30;;
19651;SDS011;9974;52.146;14.668;2023-03-24T17:16:30;4.97;;;1.63;;
19651;SDS011;9974;52.146;14.668;2023-03-24T17:18:57;4.65;;;2.35;;
19651;SDS011;9974;52.146;14.668;2023-03-24T17:21:23;4.07;;;2.00;;